Yakima, Washington
Current Conditions -  °F | °C
As of 1:53 PM on Thursday 18 Dec 2014 (Local Time) from KYKM Reporting Station
Overcast Overcast  
Wind Chill: 42°   Ceiling: 1500
Heat Index: 42°   Visibility: 10mi
Dew Point: 35°   Wind: 0mph
Humidity: 76%   Direction: NA
Pressure: 29.96"   Gusts: NA
Location:  46.6°N, 120.5°W
Report Text: KYKM 182153Z 00000KT 10SM OVC015 06/02 A2996 RMK AO2 RAB09E36 SLP152 P0000 T00560017
Loading
Personal Weather Stations






























Interactive Weather Map New forecast layout! Learn more

10-Day Weather Forecast

Advertisements
Track Severe Weather on mobile